Duvernay, Canada
Current Conditions -  °F | °C
As of 5:00 AM on Saturday 25 Oct 2014 (Local Time) from CYUL Reporting Station
Scattered Clouds Scattered Clouds  
Wind Chill: 39°   Ceiling: Unl
Heat Index: 43°   Visibility: 15mi
Dew Point: 39°   Wind: 6mph
Humidity: 87%   Direction: 230°SW
Pressure: 29.74"   Gusts: NA
Location:  45.57°N, 73.85°W
Report Text: CYUL 250900Z 23005KT 15SM SCT240 06/04 A2974 RMK CI3 SLP071
Loading
Personal Weather Stations






























Interactive Weather Map New forecast layout! Learn more

10-Day Weather Forecast

Advertisements
Track Severe Weather on mobile